Time;durP1;ratioP1;P1;durP2;ratioP2;P2;SDS_P1;SDS_P2;PMS_P1;PMS_P2;Temp;Humidity;BMP_temperature;BMP_pressure;BME280_temperature;BME280_humidity;BME280_pressure;Samples;Min_cycle;Max_cycle;Signal;HPM_P1;HPM_P2
2023/06/16 00:01:15;;;;;;;14.18;9.05;;;;;;;;;;5070177;28;20051;-69
2023/06/16 00:03:43;;;;;;;11.68;9.15;;;;;;;;;;5076800;28;20044;-69
2023/06/16 00:06:13;;;;;;;11.15;8.70;;;;;;;;;;5072838;28;20423;-69
2023/06/16 00:08:44;;;;;;;11.52;8.13;;;;;;;;;;5074826;28;20044;-69
2023/06/16 00:11:19;;;;;;;11.20;9.02;;;;;;;;;;5082713;28;20124;-70
2023/06/16 00:13:46;;;;;;;13.30;8.13;;;;;;;;;;5106863;27;20047;-70
2023/06/16 00:16:13;;;;;;;10.82;8.13;;;;;;;;;;5069882;28;20048;-70
2023/06/16 00:18:43;;;;;;;10.35;8.25;;;;;;;;;;5072227;28;20045;-70
2023/06/16 00:21:09;;;;;;;11.43;9.43;;;;;;;;;;5082208;28;20088;-70
2023/06/16 00:23:36;;;;;;;13.45;8.82;;;;;;;;;;5072321;28;20051;-71
2023/06/16 00:26:02;;;;;;;11.82;9.52;;;;;;;;;;5066388;28;20124;-70
2023/06/16 00:28:28;;;;;;;12.68;9.15;;;;;;;;;;5069779;28;20060;-70
2023/06/16 00:30:55;;;;;;;12.10;9.02;;;;;;;;;;5067522;28;20070;-68
2023/06/16 00:33:21;;;;;;;12.27;9.38;;;;;;;;;;5067304;28;20044;-70
2023/06/16 00:35:47;;;;;;;14.77;9.45;;;;;;;;;;5068808;28;20044;-70
2023/06/16 00:38:14;;;;;;;10.13;8.55;;;;;;;;;;5070218;28;20068;-70
2023/06/16 00:40:40;;;;;;;14.05;10.10;;;;;;;;;;5068493;28;20506;-71
2023/06/16 00:43:06;;;;;;;14.75;9.73;;;;;;;;;;5070077;28;20126;-70
2023/06/16 00:45:32;;;;;;;11.77;9.60;;;;;;;;;;5069328;28;20784;-71
2023/06/16 00:47:59;;;;;;;13.55;10.48;;;;;;;;;;5050276;28;20173;-71
2023/06/16 00:50:25;;;;;;;12.65;10.48;;;;;;;;;;5071868;28;20067;-70
2023/06/16 00:52:51;;;;;;;11.60;10.15;;;;;;;;;;5071946;28;20036;-71
2023/06/16 00:55:21;;;;;;;12.82;10.93;;;;;;;;;;5070650;28;20032;-71
2023/06/16 00:57:51;;;;;;;15.23;10.48;;;;;;;;;;5071878;28;20152;-70
2023/06/16 01:00:18;;;;;;;12.13;10.23;;;;;;;;;;5074125;28;20131;-69
2023/06/16 01:02:47;;;;;;;13.80;10.20;;;;;;;;;;5073247;28;20058;-69
2023/06/16 01:05:16;;;;;;;13.55;11.02;;;;;;;;;;5067592;28;20071;-70
2023/06/16 01:07:45;;;;;;;11.65;9.68;;;;;;;;;;5070152;28;20419;-70
2023/06/16 01:10:17;;;;;;;13.45;11.27;;;;;;;;;;5073654;28;20076;-70
2023/06/16 01:13:00;;;;;;;13.60;10.52;;;;;;;;;;5072828;28;20513;-71
2023/06/16 01:15:28;;;;;;;14.07;11.65;;;;;;;;;;5068215;28;20060;-71
2023/06/16 01:17:57;;;;;;;13.57;10.70;;;;;;;;;;5075938;28;20059;-71
2023/06/16 01:20:37;;;;;;;15.48;12.20;;;;;;;;;;5069336;28;20044;-70
2023/06/16 01:23:15;;;;;;;16.40;12.63;;;;;;;;;;5070181;28;20046;-71
2023/06/16 01:25:44;;;;;;;13.65;11.68;;;;;;;;;;5068803;28;20067;-70
2023/06/16 01:28:11;;;;;;;13.05;11.13;;;;;;;;;;5074924;28;20479;-70
2023/06/16 01:30:42;;;;;;;14.25;11.18;;;;;;;;;;5073518;28;20564;-70
2023/06/16 01:33:10;;;;;;;12.90;11.60;;;;;;;;;;5066833;28;20126;-71
2023/06/16 01:35:37;;;;;;;16.73;12.05;;;;;;;;;;5068286;28;20039;-71
2023/06/16 01:38:03;;;;;;;11.70;10.45;;;;;;;;;;5072887;28;20040;-71
2023/06/16 01:40:30;;;;;;;16.10;12.07;;;;;;;;;;5072708;28;20369;-71
2023/06/16 01:42:57;;;;;;;17.60;13.23;;;;;;;;;;5071810;28;20036;-71
2023/06/16 01:45:24;;;;;;;14.55;13.02;;;;;;;;;;5072816;28;20048;-71
2023/06/16 01:47:50;;;;;;;14.45;11.80;;;;;;;;;;5101942;27;20036;-71
2023/06/16 01:50:17;;;;;;;16.58;11.60;;;;;;;;;;5066727;28;20048;-71
2023/06/16 01:52:43;;;;;;;13.73;11.35;;;;;;;;;;5067220;28;20040;-71
2023/06/16 01:55:09;;;;;;;14.95;11.60;;;;;;;;;;5071885;28;20217;-71
2023/06/16 01:57:35;;;;;;;13.85;11.95;;;;;;;;;;5070802;28;20131;-70
2023/06/16 02:00:10;;;;;;;12.82;11.38;;;;;;;;;;5082283;28;20041;-71
2023/06/16 02:02:37;;;;;;;16.20;13.52;;;;;;;;;;5072315;28;20058;-70
2023/06/16 02:05:04;;;;;;;15.23;12.70;;;;;;;;;;5087096;28;20041;-71
2023/06/16 02:07:33;;;;;;;15.45;13.35;;;;;;;;;;5069134;28;20060;-70
2023/06/16 02:10:00;;;;;;;15.27;13.07;;;;;;;;;;5071622;28;20042;-70
2023/06/16 02:12:26;;;;;;;19.00;13.95;;;;;;;;;;5072642;28;20040;-70
2023/06/16 02:14:53;;;;;;;14.20;12.82;;;;;;;;;;5068882;28;20037;-71
2023/06/16 02:17:19;;;;;;;15.93;13.70;;;;;;;;;;5066803;28;20452;-70
2023/06/16 02:19:45;;;;;;;15.85;13.07;;;;;;;;;;5070595;28;20668;-70
2023/06/16 02:22:11;;;;;;;17.58;14.38;;;;;;;;;;5067355;28;20055;-70
2023/06/16 02:24:37;;;;;;;14.77;13.18;;;;;;;;;;5070089;28;20044;-70
2023/06/16 02:27:04;;;;;;;14.93;13.32;;;;;;;;;;5068462;28;20055;-70
2023/06/16 02:29:31;;;;;;;16.40;13.85;;;;;;;;;;5072287;28;20119;-69
2023/06/16 02:31:57;;;;;;;16.60;13.30;;;;;;;;;;5055486;28;20047;-70
2023/06/16 02:34:23;;;;;;;18.63;13.85;;;;;;;;;;5068819;28;20041;-70
2023/06/16 02:36:51;;;;;;;14.93;13.02;;;;;;;;;;5071145;28;20044;-70
2023/06/16 02:39:18;;;;;;;15.85;14.15;;;;;;;;;;5069222;28;20055;-70
2023/06/16 02:41:44;;;;;;;18.38;13.60;;;;;;;;;;5075779;28;20127;-70
2023/06/16 02:44:11;;;;;;;14.88;13.38;;;;;;;;;;5069039;28;20036;-70
2023/06/16 02:46:37;;;;;;;17.33;12.98;;;;;;;;;;5037067;28;20439;-70
2023/06/16 02:49:03;;;;;;;15.40;13.23;;;;;;;;;;5067927;28;20041;-71
2023/06/16 02:51:29;;;;;;;17.35;14.63;;;;;;;;;;5072719;28;20055;-70
2023/06/16 02:53:56;;;;;;;15.20;13.55;;;;;;;;;;5068143;28;20032;-70
2023/06/16 02:56:23;;;;;;;16.95;13.07;;;;;;;;;;5102220;28;20521;-71
2023/06/16 02:58:50;;;;;;;19.02;13.77;;;;;;;;;;5087514;28;20036;-71
2023/06/16 03:01:16;;;;;;;15.38;13.75;;;;;;;;;;5077712;28;20047;-71
2023/06/16 03:03:47;;;;;;;16.73;13.90;;;;;;;;;;5055698;28;20119;-71
2023/06/16 03:06:14;;;;;;;14.68;12.10;;;;;;;;;;5072625;28;20098;-70
2023/06/16 03:08:40;;;;;;;16.45;13.88;;;;;;;;;;5073918;28;20076;-70
2023/06/16 03:11:06;;;;;;;16.95;14.77;;;;;;;;;;5070720;28;20102;-71
2023/06/16 03:13:32;;;;;;;16.33;13.13;;;;;;;;;;5071906;28;20036;-71
2023/06/16 03:16:00;;;;;;;16.67;15.00;;;;;;;;;;5086735;28;20040;-71
2023/06/16 03:18:27;;;;;;;19.45;16.05;;;;;;;;;;5079058;28;20086;-70
2023/06/16 03:20:54;;;;;;;18.95;16.85;;;;;;;;;;5073027;28;20044;-70
2023/06/16 03:23:20;;;;;;;17.80;15.07;;;;;;;;;;5075223;28;20040;-70
2023/06/16 03:25:47;;;;;;;22.85;16.73;;;;;;;;;;5083449;28;20048;-70
2023/06/16 03:28:14;;;;;;;15.43;13.77;;;;;;;;;;5105622;27;20082;-70
2023/06/16 03:30:40;;;;;;;17.75;15.90;;;;;;;;;;5074029;28;20072;-70
2023/06/16 03:33:06;;;;;;;21.15;16.25;;;;;;;;;;5072137;28;20055;-69
2023/06/16 03:35:32;;;;;;;17.77;15.65;;;;;;;;;;5037673;28;20040;-69
2023/06/16 03:37:58;;;;;;;18.17;14.73;;;;;;;;;;5088150;28;20449;-70
2023/06/16 03:40:25;;;;;;;14.88;13.38;;;;;;;;;;5075175;28;20036;-69
2023/06/16 03:42:51;;;;;;;14.50;11.73;;;;;;;;;;5073806;28;20043;-69
2023/06/16 03:45:17;;;;;;;15.77;13.23;;;;;;;;;;5075323;28;20040;-69
2023/06/16 03:47:43;;;;;;;13.80;12.30;;;;;;;;;;5069927;28;20421;-69
2023/06/16 03:50:09;;;;;;;14.48;12.02;;;;;;;;;;5067504;28;20316;-71
2023/06/16 03:52:36;;;;;;;15.75;13.20;;;;;;;;;;5073653;28;20089;-69
2023/06/16 03:55:03;;;;;;;16.10;12.52;;;;;;;;;;5073251;28;20403;-70
2023/06/16 03:57:29;;;;;;;13.20;11.38;;;;;;;;;;5071215;28;20483;-71
2023/06/16 03:59:58;;;;;;;16.52;12.38;;;;;;;;;;5053468;28;20517;-69
2023/06/16 04:02:24;;;;;;;15.32;12.00;;;;;;;;;;5076846;28;20044;-69
2023/06/16 04:04:51;;;;;;;16.90;13.13;;;;;;;;;;5073469;28;20542;-69
2023/06/16 04:07:18;;;;;;;17.42;14.27;;;;;;;;;;5071169;28;20032;-69
2023/06/16 04:09:45;;;;;;;16.15;13.48;;;;;;;;;;5076363;28;20044;-69
2023/06/16 04:12:11;;;;;;;13.98;12.57;;;;;;;;;;5072714;28;20147;-69
2023/06/16 04:14:37;;;;;;;16.42;13.75;;;;;;;;;;5069626;28;20043;-69
2023/06/16 04:17:03;;;;;;;16.40;12.38;;;;;;;;;;5070895;28;20075;-69
2023/06/16 04:19:29;;;;;;;15.38;13.73;;;;;;;;;;5073254;28;20037;-70
2023/06/16 04:21:57;;;;;;;18.25;14.95;;;;;;;;;;5069719;28;20094;-70
2023/06/16 04:24:23;;;;;;;17.95;15.00;;;;;;;;;;5069990;28;20036;-69
2023/06/16 04:26:52;;;;;;;17.25;13.60;;;;;;;;;;5069559;28;20369;-69
2023/06/16 04:29:20;;;;;;;18.02;14.32;;;;;;;;;;5067267;28;20064;-69
2023/06/16 04:31:48;;;;;;;16.20;14.02;;;;;;;;;;5071575;28;20559;-69
2023/06/16 04:34:14;;;;;;;18.27;15.20;;;;;;;;;;5070706;28;20040;-69
2023/06/16 04:36:41;;;;;;;16.92;13.93;;;;;;;;;;5083572;28;20043;-69
2023/06/16 04:39:08;;;;;;;19.40;15.80;;;;;;;;;;5054646;28;20052;-69
2023/06/16 04:41:35;;;;;;;21.70;16.50;;;;;;;;;;5076836;28;20063;-70
2023/06/16 04:44:02;;;;;;;18.20;15.48;;;;;;;;;;5070145;28;20044;-70
2023/06/16 04:46:29;;;;;;;18.30;16.33;;;;;;;;;;5071698;28;20071;-70
2023/06/16 04:48:55;;;;;;;18.70;16.40;;;;;;;;;;5052847;28;20072;-70
2023/06/16 04:51:21;;;;;;;19.38;16.25;;;;;;;;;;5076103;28;20502;-71
2023/06/16 04:53:48;;;;;;;19.60;16.60;;;;;;;;;;5067506;28;20359;-70
2023/06/16 04:56:14;;;;;;;18.88;16.88;;;;;;;;;;5068030;28;20036;-70
2023/06/16 04:58:41;;;;;;;21.40;17.77;;;;;;;;;;5072530;28;20045;-70
2023/06/16 05:01:07;;;;;;;21.23;17.60;;;;;;;;;;5065986;28;20101;-70
2023/06/16 05:03:33;;;;;;;21.20;18.48;;;22.70;61.20;;;;;;5047475;28;20032;-70
2023/06/16 05:05:59;;;;;;;18.88;16.88;;;;;;;;;;5046828;28;20336;-70
2023/06/16 05:08:27;;;;;;;19.77;16.67;;;;;;;;;;5067651;28;20032;-70
2023/06/16 05:10:54;;;;;;;18.50;16.20;;;;;;;;;;5069906;28;20565;-70
2023/06/16 05:13:20;;;;;;;22.48;17.85;;;;;;;;;;5068614;28;20043;-70
2023/06/16 05:15:46;;;;;;;22.55;19.15;;;;;;;;;;5067261;28;20459;-70
2023/06/16 05:18:12;;;;;;;20.50;17.38;;;;;;;;;;5071015;28;20063;-70
2023/06/16 05:20:38;;;;;;;20.77;17.45;;;;;;;;;;5066048;28;20055;-70
2023/06/16 05:23:05;;;;;;;20.48;17.17;;;;;;;;;;5071547;28;20274;-70
2023/06/16 05:25:31;;;;;;;21.65;18.33;;;;;;;;;;5065857;28;20071;-70
2023/06/16 05:27:57;;;;;;;22.90;17.90;;;;;;;;;;5053212;28;20127;-70
2023/06/16 05:30:24;;;;;;;21.75;18.63;;;;;;;;;;5065952;28;20105;-70
2023/06/16 05:32:50;;;;;;;20.58;17.20;;;;;;;;;;5066016;28;20067;-70
2023/06/16 05:35:16;;;;;;;20.42;17.35;;;;;;;;;;5071454;28;20062;-70
2023/06/16 05:37:42;;;;;;;19.95;16.88;;;16.10;99.90;;;;;;5057914;28;20057;-70
2023/06/16 05:40:08;;;;;;;18.88;16.48;;;;;;;;;;5071984;28;20040;-70
2023/06/16 05:42:34;;;;;;;18.33;15.35;;;;;;;;;;5069789;28;20085;-69
2023/06/16 05:45:00;;;;;;;22.55;16.33;;;;;;;;;;5070270;28;20093;-69
2023/06/16 05:47:26;;;;;;;21.85;17.38;;;;;;;;;;5068715;28;20062;-69
2023/06/16 05:49:52;;;;;;;20.58;15.52;;;;;;;;;;5068389;28;20068;-69
2023/06/16 05:52:18;;;;;;;20.20;16.77;;;;;;;;;;5069278;28;20877;-70
2023/06/16 05:54:45;;;;;;;19.67;15.85;;;;;;;;;;5071362;28;20040;-70
2023/06/16 05:57:11;;;;;;;19.13;14.88;;;;;;;;;;5082672;28;20091;-70
2023/06/16 05:59:37;;;;;;;25.48;15.98;;;;;;;;;;5098313;28;20125;-71
2023/06/16 06:02:03;;;;;;;25.00;15.52;;;;;;;;;;5080109;28;20040;-70
2023/06/16 06:04:31;;;;;;;18.15;15.25;;;;;;;;;;5068025;28;20041;-71
2023/06/16 06:06:57;;;;;;;14.82;12.35;;;;;;;;;;5067527;28;20045;-71
2023/06/16 06:09:24;;;;;;;18.38;15.05;;;;;;;;;;5069131;28;20040;-70
2023/06/16 06:11:50;;;;;;;19.35;14.40;;;;;;;;;;5069203;28;20492;-71
2023/06/16 06:14:17;;;;;;;16.45;12.93;;;;;;;;;;5075978;28;20084;-70
2023/06/16 06:16:43;;;;;;;13.35;10.52;;;;;;;;;;5052423;28;20124;-68
2023/06/16 06:19:09;;;;;;;18.35;13.48;;;;;;;;;;5067944;28;20495;-71
2023/06/16 06:21:36;;;;;;;13.55;11.63;;;;;;;;;;5097358;28;20040;-72
2023/06/16 06:24:02;;;;;;;14.57;13.07;;;;;;;;;;5070261;28;20040;-72
2023/06/16 06:26:29;;;;;;;14.95;11.95;;;;;;;;;;5068059;28;21696;-71
2023/06/16 06:28:55;;;;;;;12.90;11.55;;;;;;;;;;5067142;28;20056;-72
2023/06/16 06:31:21;;;;;;;12.55;10.88;;;;;;;;;;5052504;28;20036;-72
2023/06/16 06:33:47;;;;;;;12.55;10.90;;;;;;;;;;5075153;28;20043;-72
2023/06/16 06:36:21;;;;;;;13.02;10.18;;;;;;;;;;5072592;28;20067;-72
2023/06/16 06:38:47;;;;;;;17.67;11.82;;;;;;;;;;5071249;28;20113;-72
2023/06/16 06:41:14;;;;;;;17.48;10.77;;;;;;;;;;5067777;28;20044;-70
2023/06/16 06:43:40;;;;;;;14.55;10.48;;;;;;;;;;5064625;28;20048;-71
2023/06/16 06:46:06;;;;;;;11.25;8.80;;;;;;;;;;5066173;28;20047;-71
2023/06/16 06:48:32;;;;;;;11.32;8.70;;;;;;;;;;5067921;28;20040;-72
2023/06/16 06:50:58;;;;;;;12.15;8.88;;;;;;;;;;5067098;28;20044;-71
2023/06/16 06:53:24;;;;;;;10.40;8.20;;;;;;;;;;5070806;28;20040;-71
2023/06/16 06:55:50;;;;;;;11.93;9.05;;;;;;;;;;5051328;28;20040;-72
2023/06/16 06:58:16;;;;;;;10.98;8.50;;;;;;;;;;5065304;28;20059;-72
2023/06/16 07:00:42;;;;;;;11.98;8.20;;;;;;;;;;5071150;28;20473;-72
2023/06/16 07:03:08;;;;;;;8.20;7.05;;;;;;;;;;5049662;28;20052;-71
2023/06/16 07:05:35;;;;;;;11.02;7.75;;;;;;;;;;5066244;28;20048;-72
2023/06/16 07:08:04;;;;;;;10.40;7.65;;;;;;;;;;5067924;28;20052;-72
2023/06/16 07:10:32;;;;;;;11.25;7.88;;;;;;;;;;5069767;28;20479;-71
2023/06/16 07:12:58;;;;;;;11.80;8.35;;;;;;;;;;5068723;28;20052;-71
2023/06/16 07:15:25;;;;;;;10.63;7.60;;;;;;;;;;5067770;28;20492;-71
2023/06/16 07:17:51;;;;;;;9.93;7.57;;;;;;;;;;5051439;28;20064;-71
2023/06/16 07:20:17;;;;;;;9.50;8.02;;;;;;;;;;5065418;28;20059;-70
2023/06/16 07:22:45;;;;;;;10.27;7.07;;;;;;;;;;5066116;28;20051;-71
2023/06/16 07:25:11;;;;;;;10.63;8.02;;;;;;;;;;5065656;28;20086;-71
2023/06/16 07:27:38;;;;;;;8.52;6.88;;;;;;;;;;5068243;28;20309;-69
2023/06/16 07:30:05;;;;;;;9.25;7.63;;;;;;;;;;5068602;28;20048;-69
2023/06/16 07:32:31;;;;;;;13.35;8.18;;;;;;;;;;5069345;28;20051;-68
2023/06/16 07:34:57;;;;;;;9.90;6.95;;;;;;;;;;5084345;28;20037;-68
2023/06/16 07:37:23;;;;;;;10.05;7.55;;;;;;;;;;5065621;28;20561;-69
2023/06/16 07:39:49;;;;;;;7.95;6.38;;;;;;;;;;5065451;28;20093;-69
2023/06/16 07:42:16;;;;;;;7.13;6.40;;;;;;;;;;5062979;28;20067;-67
2023/06/16 07:44:42;;;;;;;7.95;6.22;;;16.70;99.90;;;;;;5068832;28;20154;-68
2023/06/16 07:47:08;;;;;;;6.65;5.28;;;;;;;;;;5073057;28;20041;-68
2023/06/16 07:49:34;;;;;;;12.15;6.88;;;19.60;96.30;;;;;;5072037;28;20480;-68
2023/06/16 07:52:00;;;;;;;8.98;5.75;;;19.60;95.60;;;;;;5068687;28;20064;-68
2023/06/16 07:54:25;;;;;;;8.57;5.47;;;19.60;95.50;;;;;;5070457;28;20071;-67
2023/06/16 07:56:51;;;;;;;6.10;5.25;;;19.70;95.60;;;;;;5073937;28;20492;-68
2023/06/16 07:59:17;;;;;;;6.28;4.13;;;19.70;95.40;;;;;;5069992;28;20089;-68
2023/06/16 08:01:44;;;;;;;6.05;4.78;;;19.80;94.90;;;;;;5072675;28;20040;-68
2023/06/16 08:04:11;;;;;;;7.35;4.25;;;19.80;94.20;;;;;;5071463;28;20108;-68
2023/06/16 08:06:37;;;;;;;5.38;3.47;;;19.90;93.70;;;;;;5070961;28;20112;-68
2023/06/16 08:09:07;;;;;;;6.68;4.07;;;19.90;93.30;;;;;;5067486;28;20036;-68
2023/06/16 08:11:36;;;;;;;4.78;3.58;;;19.90;93.00;;;;;;5086759;28;20043;-68
2023/06/16 08:14:03;;;;;;;6.00;3.40;;;20.00;92.50;;;;;;5077961;28;20123;-68
2023/06/16 08:16:28;;;;;;;6.05;3.53;;;20.00;91.90;;;;;;5070484;28;20048;-68
2023/06/16 08:18:57;;;;;;;5.47;3.05;;;20.10;91.30;;;;;;5070139;28;20154;-68
2023/06/16 08:21:24;;;;;;;5.60;2.92;;;20.10;91.10;;;;;;5069388;28;20044;-68
2023/06/16 08:23:52;;;;;;;5.80;2.95;;;20.10;90.40;;;;;;5074660;28;20075;-68
2023/06/16 08:26:18;;;;;;;4.80;3.08;;;20.10;88.50;;;;;;5067611;28;20057;-68
2023/06/16 08:28:44;;;;;;;5.90;3.42;;;20.20;87.00;;;;;;5067723;28;20089;-68
2023/06/16 08:31:11;;;;;;;5.90;3.15;;;20.20;86.10;;;;;;5069345;28;20558;-68
2023/06/16 08:33:37;;;;;;;6.07;3.47;;;20.30;85.50;;;;;;5075864;28;20040;-68
2023/06/16 08:36:03;;;;;;;4.28;2.83;;;20.30;84.40;;;;;;5071999;28;20044;-68
2023/06/16 08:38:28;;;;;;;5.40;2.80;;;20.30;83.30;;;;;;5065774;28;20157;-68
2023/06/16 08:40:54;;;;;;;4.10;2.70;;;20.40;83.50;;;;;;5068563;28;20056;-68
2023/06/16 08:43:22;;;;;;;4.32;3.03;;;20.40;83.90;;;;;;5073864;28;20105;-68
2023/06/16 08:45:50;;;;;;;4.75;2.53;;;20.40;82.20;;;;;;5070967;28;20040;-68
2023/06/16 08:48:16;;;;;;;3.95;2.60;;;20.50;82.70;;;;;;5068032;28;20048;-67
2023/06/16 08:50:42;;;;;;;5.47;2.60;;;20.60;82.00;;;;;;5074738;28;20036;-68
2023/06/16 08:53:11;;;;;;;5.75;2.40;;;20.60;81.70;;;;;;5073038;28;20479;-68
2023/06/16 08:55:43;;;;;;;4.65;2.40;;;20.70;80.50;;;;;;5065784;28;20387;-68
2023/06/16 08:58:11;;;;;;;4.32;2.35;;;20.70;79.90;;;;;;5070025;28;20124;-68
2023/06/16 09:00:39;;;;;;;3.80;2.50;;;20.80;79.90;;;;;;5075675;28;20037;-68
2023/06/16 09:03:08;;;;;;;3.55;2.13;;;20.80;79.50;;;;;;5072326;28;20040;-68
2023/06/16 09:05:36;;;;;;;5.47;2.42;;;20.90;78.50;;;;;;5085298;28;20131;-68
2023/06/16 09:08:05;;;;;;;4.30;2.35;;;20.90;78.20;;;;;;5100708;27;20253;-68
2023/06/16 09:10:31;;;;;;;6.47;2.45;;;21.00;77.40;;;;;;5074681;28;20032;-68
2023/06/16 09:13:00;;;;;;;4.57;2.67;;;21.00;77.70;;;;;;5065688;28;20047;-68
2023/06/16 09:15:26;;;;;;;4.30;2.97;;;21.10;77.50;;;;;;5070077;28;20032;-69
2023/06/16 09:17:52;;;;;;;3.20;2.30;;;21.10;77.80;;;;;;5069144;28;20098;-69
2023/06/16 09:20:19;;;;;;;3.63;2.22;;;21.20;76.90;;;;;;5072504;28;20050;-70
2023/06/16 09:22:49;;;;;;;4.20;2.53;;;21.30;76.30;;;;;;5069353;28;20041;-69
2023/06/16 09:25:18;;;;;;;2.85;1.80;;;21.30;76.10;;;;;;5071932;28;20040;-69
2023/06/16 09:27:47;;;;;;;4.50;2.67;;;21.40;75.60;;;;;;5082389;28;20079;-70
2023/06/16 09:30:15;;;;;;;4.82;2.30;;;21.40;73.60;;;;;;5069433;28;20496;-70
2023/06/16 09:32:41;;;;;;;4.60;2.40;;;21.50;73.40;;;;;;5069383;28;20491;-68
2023/06/16 09:35:20;;;;;;;8.07;2.60;;;21.50;72.90;;;;;;5066081;28;20123;-69
2023/06/16 09:37:51;;;;;;;5.00;2.65;;;21.50;71.50;;;;;;5073535;28;20044;-69
2023/06/16 09:40:19;;;;;;;4.03;2.15;;;21.60;72.00;;;;;;5071699;28;20567;-70
2023/06/16 09:42:47;;;;;;;3.63;2.15;;;21.60;71.90;;;;;;5066350;28;20033;-69
2023/06/16 09:45:18;;;;;;;7.15;2.72;;;21.70;71.90;;;;;;5074020;28;20403;-69
2023/06/16 09:47:45;;;;;;;4.32;2.97;;;21.80;71.50;;;;;;5101264;27;20045;-70
2023/06/16 09:50:25;;;;;;;7.95;2.92;;;21.90;71.30;;;;;;5068309;28;20047;-70
2023/06/16 09:52:53;;;;;;;5.47;2.67;;;21.90;70.90;;;;;;5072252;28;20136;-70
2023/06/16 09:55:19;;;;;;;4.65;2.80;;;22.00;71.20;;;;;;5074393;28;20040;-68
2023/06/16 09:57:47;;;;;;;3.83;2.55;;;22.00;70.20;;;;;;5071469;28;20128;-69
2023/06/16 10:00:17;;;;;;;4.72;2.50;;;22.10;69.50;;;;;;5069535;28;20079;-69
2023/06/16 10:02:45;;;;;;;5.07;3.05;;;22.10;69.00;;;;;;5070870;28;20067;-69
2023/06/16 10:05:18;;;;;;;3.95;2.42;;;22.20;69.50;;;;;;5082576;28;20819;-70
2023/06/16 10:07:50;;;;;;;6.65;3.22;;;22.20;69.40;;;;;;5067867;28;20047;-69
2023/06/16 10:10:19;;;;;;;3.78;2.20;;;22.20;69.70;;;;;;5063914;28;20083;-68
2023/06/16 10:12:50;;;;;;;5.00;2.40;;;;;;;;;;5062712;28;20329;-70
2023/06/16 10:15:28;;;;;;;6.18;2.65;;;22.30;69.30;;;;;;5050015;28;20614;-70
2023/06/16 10:18:03;;;;;;;4.47;2.60;;;22.50;69.40;;;;;;5068708;28;20047;-70
2023/06/16 10:20:32;;;;;;;3.17;2.40;;;22.50;69.70;;;;;;5053816;28;20044;-69
2023/06/16 10:23:02;;;;;;;4.35;2.35;;;22.60;69.20;;;;;;5070355;28;20138;-70
2023/06/16 10:25:29;;;;;;;8.48;2.80;;;22.60;68.80;;;;;;5101477;28;20056;-70
2023/06/16 10:27:56;;;;;;;4.45;2.22;;;22.60;68.60;;;;;;5066860;28;20049;-70
2023/06/16 10:30:23;;;;;;;3.70;2.17;;;22.70;68.50;;;;;;5067180;28;20037;-69
2023/06/16 10:32:52;;;;;;;3.72;2.20;;;22.80;68.20;;;;;;5066141;28;20091;-69
2023/06/16 10:35:19;;;;;;;5.82;2.90;;;22.80;67.50;;;;;;5066263;28;20663;-69
2023/06/16 10:37:53;;;;;;;4.35;2.45;;;22.90;67.10;;;;;;5072169;28;20406;-67
2023/06/16 10:40:23;;;;;;;7.00;2.67;;;22.90;63.90;;;;;;5065625;28;20103;-69
2023/06/16 10:42:55;;;;;;;5.47;2.88;;;22.80;64.00;;;;;;5070431;28;20052;-70
2023/06/16 10:45:28;;;;;;;3.22;2.28;;;22.80;64.00;;;;;;5066960;28;20032;-70
2023/06/16 10:47:59;;;;;;;7.30;3.22;;;22.90;64.40;;;;;;5032027;28;20234;-68
2023/06/16 10:50:43;;;;;;;4.50;2.90;;;22.90;63.60;;;;;;5085643;28;20083;-70
2023/06/16 10:53:14;;;;;;;7.03;2.60;;;22.90;63.00;;;;;;5065749;28;20067;-70
2023/06/16 10:55:42;;;;;;;3.75;3.00;;;22.90;63.60;;;;;;5070831;28;20044;-70
2023/06/16 10:58:16;;;;;;;5.32;3.03;;;23.00;63.70;;;;;;5049118;28;20059;-68
2023/06/16 11:00:42;;;;;;;5.22;2.45;;;23.00;63.10;;;;;;5067807;28;20044;-70
2023/06/16 11:03:08;;;;;;;4.03;2.30;;;;;;;;;;5065179;28;20470;-70
2023/06/16 11:05:41;;;;;;;9.60;3.13;;;;;;;;;;5067508;28;20040;-69
2023/06/16 11:08:08;;;;;;;4.25;2.00;;;;;;;;;;5074333;28;20037;-70
2023/06/16 11:11:07;;;;;;;5.72;2.35;;;;;;;;;;5058210;28;20038;-70
2023/06/16 11:13:35;;;;;;;4.00;2.80;;;;;;;;;;5040679;28;20526;-69
2023/06/16 11:16:02;;;;;;;4.80;2.42;;;;;;;;;;5059978;28;20044;-70
2023/06/16 11:18:29;;;;;;;4.28;2.30;;;;;;;;;;5070450;28;20124;-70
2023/06/16 11:20:59;;;;;;;3.60;2.10;;;;;;;;;;5076293;28;20055;-70
2023/06/16 11:23:25;;;;;;;3.35;2.20;;;;;;;;;;5069400;28;20638;-70
2023/06/16 11:25:52;;;;;;;5.95;2.60;;;;;;;;;;5070999;28;20062;-70
2023/06/16 11:28:21;;;;;;;3.10;2.22;;;;;;;;;;5054740;28;20479;-69
2023/06/16 11:30:48;;;;;;;7.72;2.47;;;;;;;;;;5076367;28;20044;-70
2023/06/16 11:33:19;;;;;;;3.15;2.13;;;;;;;;;;5068492;28;20128;-70
2023/06/16 11:35:45;;;;;;;5.75;2.60;;;;;;;;;;5069251;28;20628;-70
2023/06/16 11:38:11;;;;;;;4.35;2.60;;;;;;;;;;5072812;28;20487;-70
2023/06/16 11:40:38;;;;;;;49.90;5.45;;;;;;;;;;5074855;28;20493;-69
2023/06/16 11:43:05;;;;;;;3.42;2.13;;;;;;;;;;5072517;28;20032;-68
2023/06/16 11:45:32;;;;;;;3.72;2.22;;;;;;;;;;5078501;28;20527;-69
2023/06/16 11:47:59;;;;;;;6.03;2.92;;;;;;;;;;5070535;28;20036;-69
2023/06/16 11:50:26;;;;;;;3.80;2.75;;;;;;;;;;5100087;28;20048;-69
2023/06/16 11:52:52;;;;;;;11.13;2.53;;;;;;;;;;5070194;28;20371;-69
2023/06/16 11:55:19;;;;;;;3.38;1.90;;;;;;;;;;5075704;28;20040;-69
2023/06/16 11:57:45;;;;;;;3.58;2.47;;;;;;;;;;5077429;28;20044;-70
2023/06/16 12:00:13;;;;;;;28.25;4.22;;;;;;;;;;5074118;28;20072;-70
2023/06/16 12:02:39;;;;;;;4.53;2.42;;;;;;;;;;5071837;28;20520;-69
2023/06/16 12:05:10;;;;;;;7.05;2.15;;;;;;;;;;5070253;28;20079;-69
2023/06/16 12:07:36;;;;;;;5.55;2.08;;;;;;;;;;5067379;28;20124;-69
2023/06/16 12:10:03;;;;;;;4.97;2.30;;;;;;;;;;5074230;28;20076;-69
2023/06/16 12:12:30;;;;;;;3.08;2.20;;;;;;;;;;5069973;28;20044;-70
2023/06/16 12:14:58;;;;;;;6.07;3.00;;;;;;;;;;5075037;28;20102;-70
2023/06/16 12:17:25;;;;;;;6.20;2.25;;;;;;;;;;5073229;28;20105;-70
2023/06/16 12:19:51;;;;;;;5.95;1.90;;;;;;;;;;5084953;28;20049;-70
2023/06/16 12:22:18;;;;;;;4.35;2.10;;;;;;;;;;5101407;28;20036;-70
2023/06/16 12:24:44;;;;;;;4.38;2.35;;;;;;;;;;5071521;28;20042;-70
2023/06/16 12:27:21;;;;;;;5.88;2.22;;;;;;;;;;5071921;28;20041;-70
2023/06/16 12:29:47;;;;;;;8.30;2.85;;;;;;;;;;5070254;28;20035;-70
2023/06/16 12:32:13;;;;;;;4.50;2.38;;;;;;;;;;5073590;28;20066;-70
2023/06/16 12:34:40;;;;;;;4.68;2.40;;;;;;;;;;5073016;28;20036;-69
2023/06/16 12:37:13;;;;;;;10.23;2.67;;;;;;;;;;5069396;28;20076;-70
2023/06/16 12:39:43;;;;;;;4.07;2.00;;;;;;;;;;5073815;28;20484;-70
2023/06/16 12:42:12;;;;;;;2.97;2.13;;;;;;;;;;5074488;28;20127;-70
2023/06/16 12:44:46;;;;;;;6.80;2.97;;;;;;;;;;5084799;28;20103;-69
2023/06/16 12:47:15;;;;;;;3.85;2.58;;;;;;;;;;5067401;28;20039;-70
2023/06/16 12:49:42;;;;;;;4.28;2.65;;;;;;;;;;5072624;28;20093;-70
2023/06/16 12:52:09;;;;;;;3.53;2.10;;;;;;;;;;5068095;28;20033;-69
2023/06/16 12:54:35;;;;;;;5.45;2.72;;;;;;;;;;5104312;27;20340;-69
2023/06/16 12:57:01;;;;;;;4.75;2.22;;;;;;;;;;5071828;28;20054;-70
2023/06/16 12:59:28;;;;;;;3.38;2.17;;;;;;;;;;5074205;28;20347;-69
2023/06/16 13:01:55;;;;;;;7.72;2.85;;;;;;;;;;5075111;28;20059;-70
2023/06/16 13:04:21;;;;;;;4.47;2.60;;;;;;;;;;5070231;28;20036;-70
2023/06/16 13:06:47;;;;;;;6.65;2.30;;;;;;;;;;5071194;28;20116;-69
2023/06/16 13:09:14;;;;;;;7.03;2.85;;;;;;;;;;5087266;28;20036;-70
2023/06/16 13:11:41;;;;;;;3.90;2.63;;;;;;;;;;5074785;28;20407;-69
2023/06/16 13:14:07;;;;;;;10.13;2.60;;;;;;;;;;5068321;28;20507;-70
2023/06/16 13:16:33;;;;;;;5.55;2.50;;;;;;;;;;5070387;28;20044;-70
2023/06/16 13:18:59;;;;;;;6.32;2.70;;;;;;;;;;5073886;28;20040;-70
2023/06/16 13:21:25;;;;;;;5.65;3.90;;;;;;;;;;5072860;28;20091;-70
2023/06/16 13:23:52;;;;;;;11.35;3.75;;;;;;;;;;5069670;28;20369;-70
2023/06/16 13:26:22;;;;;;;3.22;2.50;;;;;;;;;;5070624;28;20253;-70
2023/06/16 13:28:51;;;;;;;22.23;2.95;;;;;;;;;;5076390;28;20052;-70
2023/06/16 13:31:17;;;;;;;5.80;2.50;;;;;;;;;;5067445;28;20515;-70
2023/06/16 13:33:43;;;;;;;3.50;2.53;;;;;;;;;;5083804;28;20043;-70
2023/06/16 13:36:18;;;;;;;5.28;2.35;;;;;;;;;;5068920;28;20123;-70
2023/06/16 13:38:44;;;;;;;8.30;2.97;;;;;;;;;;5090546;28;20076;-69
2023/06/16 13:41:12;;;;;;;4.32;2.22;;;;;;;;;;5068979;28;20033;-70
2023/06/16 13:43:39;;;;;;;6.20;2.95;;;;;;;;;;5071361;28;20123;-70
2023/06/16 13:46:05;;;;;;;5.30;2.20;;;;;;;;;;5069417;28;20405;-69
2023/06/16 13:48:31;;;;;;;6.53;2.45;;;;;;;;;;5079977;28;20118;-70
2023/06/16 13:50:58;;;;;;;11.77;4.00;;;;;;;;;;5068644;28;20068;-69
2023/06/16 13:53:24;;;;;;;5.88;2.67;;;;;;;;;;5066006;28;20040;-70
2023/06/16 13:55:51;;;;;;;4.70;2.15;;;;;;;;;;5067445;28;20097;-68
2023/06/16 13:58:17;;;;;;;5.97;2.65;;;;;;;;;;5091595;28;20051;-69
2023/06/16 14:00:43;;;;;;;5.20;2.83;;;;;;;;;;5068411;28;20645;-70
2023/06/16 14:03:09;;;;;;;4.03;1.95;;;;;;;;;;5063564;28;20085;-69